createdAt,value
2022-11-29T00:00:54.714Z,101270.50
2022-11-29T00:04:12.237Z,101269.56
2022-11-29T00:07:35.679Z,101260.16
2022-11-29T00:10:46.969Z,101260.53
2022-11-29T00:13:50.695Z,101251.00
2022-11-29T00:17:04.694Z,101258.88
2022-11-29T00:20:12.307Z,101251.31
2022-11-29T00:23:25.218Z,101254.59
2022-11-29T00:26:32.549Z,101248.88
2022-11-29T00:29:46.208Z,101245.03
2022-11-29T00:33:03.974Z,101237.00
2022-11-29T00:36:27.153Z,101241.25
2022-11-29T00:39:49.020Z,101237.06
2022-11-29T00:43:10.999Z,101235.53
2022-11-29T00:46:31.889Z,101241.78
2022-11-29T00:49:55.054Z,101234.75
2022-11-29T00:53:16.892Z,101236.28
2022-11-29T00:56:33.212Z,101230.50
2022-11-29T00:59:53.085Z,101229.66
2022-11-29T01:03:23.090Z,101231.28
2022-11-29T01:06:45.029Z,101229.66
2022-11-29T01:10:08.027Z,101217.09
2022-11-29T01:13:32.100Z,101222.06
2022-11-29T01:16:49.146Z,101219.59
2022-11-29T01:20:16.243Z,101230.53
2022-11-29T01:23:30.081Z,101222.66
2022-11-29T01:26:45.976Z,101223.09
2022-11-29T01:30:16.066Z,101222.41
2022-11-29T01:33:36.943Z,101218.78
2022-11-29T01:37:00.022Z,101219.22
2022-11-29T01:40:24.075Z,101221.44
2022-11-29T01:43:40.163Z,101215.66
2022-11-29T01:47:01.005Z,101220.25
2022-11-29T01:50:24.849Z,101222.41
2022-11-29T01:53:47.961Z,101221.50
2022-11-29T01:57:11.133Z,101218.00
2022-11-29T02:00:30.894Z,101223.31
2022-11-29T02:03:54.871Z,101220.00
2022-11-29T02:07:05.065Z,101224.13
2022-11-29T02:10:13.549Z,101222.81
2022-11-29T02:13:41.883Z,101218.72
2022-11-29T02:17:00.825Z,101215.84
2022-11-29T02:20:40.156Z,101219.94
2022-11-29T02:24:10.652Z,101225.91
2022-11-29T02:27:48.289Z,101226.72
2022-11-29T02:31:20.783Z,101233.66
2022-11-29T02:34:40.242Z,101237.94
2022-11-29T02:38:33.888Z,101240.19
2022-11-29T02:42:16.624Z,101233.22
2022-11-29T02:45:39.754Z,101233.56
2022-11-29T02:49:12.115Z,101230.91
2022-11-29T02:52:54.385Z,101236.88
2022-11-29T02:56:13.400Z,101229.56
2022-11-29T02:59:24.037Z,101235.28
2022-11-29T03:02:47.385Z,101238.41
2022-11-29T03:06:03.759Z,101236.19
2022-11-29T03:09:29.356Z,101241.41
2022-11-29T03:12:44.266Z,101246.31
2022-11-29T03:16:05.782Z,101243.69
2022-11-29T03:19:45.606Z,101247.84
2022-11-29T03:23:16.280Z,101241.63
2022-11-29T03:26:45.618Z,101244.75
2022-11-29T03:30:10.442Z,101244.38
2022-11-29T03:33:45.883Z,101239.47
2022-11-29T03:37:31.314Z,101248.31
2022-11-29T03:40:59.755Z,101251.34
2022-11-29T03:44:22.804Z,101258.75
2022-11-29T03:47:59.751Z,101245.78
2022-11-29T03:51:16.268Z,101259.38
2022-11-29T03:54:47.250Z,101250.72
2022-11-29T03:58:12.904Z,101257.13
2022-11-29T04:01:21.975Z,101257.31
2022-11-29T04:05:00.049Z,101260.69
2022-11-29T04:08:43.914Z,101265.44
2022-11-29T04:12:27.436Z,101275.00
2022-11-29T04:16:13.679Z,101266.19
2022-11-29T04:19:54.809Z,101276.69
2022-11-29T04:23:47.616Z,101279.78
2022-11-29T04:27:21.802Z,101278.63
2022-11-29T04:30:56.329Z,101280.31
2022-11-29T04:34:38.453Z,101263.88
2022-11-29T04:38:00.826Z,101274.84
2022-11-29T04:41:34.737Z,101273.72
2022-11-29T04:44:56.649Z,101269.91
2022-11-29T04:48:45.292Z,101278.28
2022-11-29T04:52:05.915Z,101277.41
2022-11-29T04:55:34.055Z,101282.25
2022-11-29T04:59:31.442Z,101281.81
2022-11-29T05:03:26.596Z,101288.72
2022-11-29T05:06:41.025Z,101296.16
2022-11-29T05:10:03.918Z,101302.00
2022-11-29T05:13:23.162Z,101300.53
2022-11-29T05:16:49.150Z,101304.50
2022-11-29T05:20:10.534Z,101302.03
2022-11-29T05:23:51.320Z,101302.41
2022-11-29T05:27:32.461Z,101305.44
2022-11-29T05:31:40.715Z,101302.63
2022-11-29T05:34:58.650Z,101309.53
2022-11-29T05:38:35.301Z,101304.63
2022-11-29T05:41:59.389Z,101305.00
2022-11-29T05:45:27.474Z,101306.53
2022-11-29T05:48:45.447Z,101303.44
2022-11-29T05:52:15.784Z,101309.25
2022-11-29T05:55:40.472Z,101310.06
2022-11-29T05:58:51.677Z,101314.88
2022-11-29T06:02:35.916Z,101309.84
2022-11-29T06:06:01.195Z,101317.03
2022-11-29T06:09:31.133Z,101322.78
2022-11-29T06:12:56.866Z,101332.38
2022-11-29T06:16:50.128Z,101326.66
2022-11-29T06:20:14.333Z,101325.97
2022-11-29T06:23:41.715Z,101334.31
2022-11-29T06:26:58.831Z,101338.34
2022-11-29T06:30:19.011Z,101333.47
2022-11-29T06:33:52.947Z,101333.72
2022-11-29T06:37:21.398Z,101333.41
2022-11-29T06:40:25.423Z,101343.16
2022-11-29T06:43:45.421Z,101347.25
2022-11-29T06:47:07.648Z,101344.56
2022-11-29T06:51:02.571Z,101343.25
2022-11-29T06:54:11.691Z,101342.88
2022-11-29T06:58:13.228Z,101338.59
2022-11-29T07:02:08.603Z,101342.09
2022-11-29T07:06:07.206Z,101349.78
2022-11-29T07:15:53.958Z,101341.94
2022-11-29T07:24:04.636Z,101355.22
2022-11-29T07:27:28.402Z,101354.22
2022-11-29T07:30:53.823Z,101350.56
2022-11-29T07:34:09.834Z,101362.25
2022-11-29T07:37:46.163Z,101361.97
2022-11-29T07:41:47.999Z,101355.00
2022-11-29T07:49:33.634Z,101364.34
2022-11-29T07:53:25.772Z,101366.38
2022-11-29T07:57:17.597Z,101365.63
2022-11-29T08:00:28.156Z,101370.06
2022-11-29T08:10:47.097Z,101371.63
2022-11-29T08:13:58.355Z,101364.84
2022-11-29T08:17:56.775Z,101358.53
2022-11-29T08:21:07.710Z,101355.97
2022-11-29T08:24:16.873Z,101366.00
2022-11-29T08:27:25.285Z,101361.16
2022-11-29T08:40:54.325Z,101364.63
2022-11-29T08:44:11.021Z,101365.59
2022-11-29T08:47:44.838Z,101368.00
2022-11-29T09:05:53.506Z,101374.09
2022-11-29T09:09:29.799Z,101369.03
2022-11-29T09:12:59.903Z,101363.38
2022-11-29T09:16:26.668Z,101362.97
2022-11-29T09:19:42.861Z,101368.22
2022-11-29T09:23:02.880Z,101361.88
2022-11-29T09:35:34.119Z,101357.28
2022-11-29T09:38:39.469Z,101358.97
2022-11-29T09:42:29.352Z,101358.22
2022-11-29T09:45:58.862Z,101363.31
2022-11-29T09:49:56.946Z,101349.84
2022-11-29T10:03:19.789Z,101346.38
2022-11-29T10:06:50.213Z,101339.13
2022-11-29T10:10:46.572Z,101332.50
2022-11-29T10:14:01.634Z,101330.56
2022-11-29T10:18:18.010Z,101322.81
2022-11-29T10:21:38.041Z,101315.75
2022-11-29T10:24:58.462Z,101321.19
2022-11-29T10:28:33.589Z,101318.53
2022-11-29T10:43:38.670Z,101306.88
2022-11-29T10:47:11.103Z,101302.06
2022-11-29T10:50:45.682Z,101310.41
2022-11-29T11:00:07.596Z,101298.56
2022-11-29T11:04:24.093Z,101292.84
2022-11-29T11:08:35.773Z,101299.81
2022-11-29T11:12:54.812Z,101289.50
2022-11-29T11:16:18.702Z,101299.75
2022-11-29T11:19:38.634Z,101303.25
2022-11-29T11:23:50.569Z,101308.16
2022-11-29T11:27:37.487Z,101304.59
2022-11-29T11:31:09.781Z,101296.72
2022-11-29T11:35:17.042Z,101294.53
2022-11-29T11:38:26.368Z,101303.63
2022-11-29T11:42:17.877Z,101302.72
2022-11-29T11:50:50.328Z,101297.88
2022-11-29T11:54:16.766Z,101298.28
2022-11-29T12:02:51.743Z,101293.94
2022-11-29T12:06:03.962Z,101300.34
2022-11-29T12:09:11.546Z,101297.91
2022-11-29T12:12:39.685Z,101294.47
2022-11-29T12:16:12.355Z,101298.19
2022-11-29T12:25:07.883Z,101292.44
2022-11-29T12:29:06.470Z,101292.59
2022-11-29T12:33:07.645Z,101288.59
2022-11-29T12:36:52.194Z,101288.38
2022-11-29T12:40:47.719Z,101272.97
2022-11-29T12:44:56.425Z,101282.50
2022-11-29T12:48:19.422Z,101278.22
2022-11-29T12:51:55.597Z,101272.88
2022-11-29T12:55:54.174Z,101279.28
2022-11-29T12:59:51.684Z,101281.00
2022-11-29T13:03:15.870Z,101279.34
2022-11-29T13:06:53.979Z,101277.84
2022-11-29T13:10:33.101Z,101279.78
2022-11-29T13:13:52.867Z,101280.81
2022-11-29T13:21:57.911Z,101273.22
2022-11-29T13:25:37.796Z,101278.19
2022-11-29T13:28:42.908Z,101279.91
2022-11-29T13:31:49.277Z,101274.63
2022-11-29T13:35:11.947Z,101280.81
2022-11-29T13:38:49.261Z,101280.53
2022-11-29T13:42:33.809Z,101273.34
2022-11-29T13:45:58.682Z,101274.28
2022-11-29T13:49:31.490Z,101281.94
2022-11-29T13:52:48.781Z,101275.19
2022-11-29T13:56:03.153Z,101272.53
2022-11-29T14:00:13.679Z,101279.31
2022-11-29T14:03:29.256Z,101290.34
2022-11-29T14:06:41.787Z,101278.44
2022-11-29T14:10:10.268Z,101286.34
2022-11-29T14:13:30.951Z,101282.31
2022-11-29T14:16:53.468Z,101282.09
2022-11-29T14:20:25.081Z,101285.22
2022-11-29T14:23:36.053Z,101283.13
2022-11-29T14:26:55.017Z,101280.59
2022-11-29T14:30:52.996Z,101272.75
2022-11-29T14:34:34.011Z,101279.41
2022-11-29T14:38:30.783Z,101278.84
2022-11-29T14:41:52.680Z,101281.28
2022-11-29T14:45:16.884Z,101279.53
2022-11-29T14:48:38.990Z,101278.03
2022-11-29T14:52:28.688Z,101275.41
2022-11-29T14:55:39.284Z,101284.06
2022-11-29T14:58:45.547Z,101273.09
2022-11-29T15:02:00.237Z,101275.53
2022-11-29T15:05:18.929Z,101270.38
2022-11-29T15:08:52.061Z,101276.84
2022-11-29T15:12:04.461Z,101279.50
2022-11-29T15:15:36.610Z,101276.50
2022-11-29T15:18:59.451Z,101287.16
2022-11-29T15:22:18.431Z,101283.56
2022-11-29T15:25:24.737Z,101265.72
2022-11-29T15:28:32.460Z,101280.41
2022-11-29T15:31:50.761Z,101283.81
2022-11-29T15:35:07.649Z,101272.38
2022-11-29T15:38:35.760Z,101274.16
2022-11-29T15:41:57.692Z,101280.66
2022-11-29T15:45:32.024Z,101280.56
2022-11-29T15:48:46.678Z,101280.69
2022-11-29T15:51:57.195Z,101281.06
2022-11-29T15:55:26.679Z,101278.56
2022-11-29T15:58:44.734Z,101290.22
2022-11-29T16:02:09.746Z,101283.09
2022-11-29T16:05:34.727Z,101271.06
2022-11-29T16:08:57.680Z,101278.28
2022-11-29T16:12:19.768Z,101277.78
2022-11-29T16:15:41.682Z,101291.13
2022-11-29T16:18:57.750Z,101291.78
2022-11-29T16:22:17.679Z,101296.19
2022-11-29T16:25:38.802Z,101295.38
2022-11-29T16:29:03.563Z,101288.03
2022-11-29T16:32:50.375Z,101295.44
2022-11-29T16:36:11.892Z,101294.63
2022-11-29T16:39:24.520Z,101300.78
2022-11-29T16:42:33.759Z,101304.66
2022-11-29T16:45:49.743Z,101306.59
2022-11-29T16:49:42.540Z,101308.63
2022-11-29T16:53:38.927Z,101310.72
2022-11-29T16:57:02.642Z,101311.72
2022-11-29T17:00:27.269Z,101314.88
2022-11-29T17:03:43.542Z,101315.38
2022-11-29T17:07:10.611Z,101321.44
2022-11-29T17:10:35.291Z,101325.78
2022-11-29T17:13:52.612Z,101320.44
2022-11-29T17:17:11.430Z,101329.53
2022-11-29T17:20:31.683Z,101327.09
2022-11-29T17:23:47.494Z,101338.88
2022-11-29T17:27:15.487Z,101341.25
2022-11-29T17:30:32.331Z,101335.31
2022-11-29T17:33:55.417Z,101337.19
2022-11-29T17:37:29.456Z,101338.66
2022-11-29T17:40:49.563Z,101337.44
2022-11-29T17:44:09.525Z,101338.56
2022-11-29T17:47:31.454Z,101348.53
2022-11-29T17:50:49.236Z,101337.78
2022-11-29T17:54:12.525Z,101336.25
2022-11-29T17:57:43.402Z,101332.06
2022-11-29T18:01:06.284Z,101342.72
2022-11-29T18:05:19.909Z,101345.81
2022-11-29T18:08:36.312Z,101335.66
2022-11-29T18:11:53.626Z,101329.78
2022-11-29T18:15:10.661Z,101335.53
2022-11-29T18:18:16.785Z,101333.66
2022-11-29T18:21:23.327Z,101335.06
2022-11-29T18:24:39.340Z,101345.06
2022-11-29T18:28:02.262Z,101342.31
2022-11-29T18:31:25.335Z,101337.84
2022-11-29T18:34:48.450Z,101339.78
2022-11-29T18:38:16.059Z,101342.84
2022-11-29T18:41:22.753Z,101340.16
2022-11-29T18:44:29.715Z,101346.88
2022-11-29T18:47:35.467Z,101351.34
2022-11-29T18:50:44.924Z,101343.13
2022-11-29T18:54:08.378Z,101347.13
2022-11-29T18:57:31.152Z,101341.75
2022-11-29T19:00:54.341Z,101348.72
2022-11-29T19:04:10.132Z,101349.78
2022-11-29T19:07:48.528Z,101351.63
2022-11-29T19:10:57.759Z,101346.94
2022-11-29T19:14:23.126Z,101356.63
2022-11-29T19:17:53.077Z,101360.22
2022-11-29T19:21:20.842Z,101352.41
2022-11-29T19:24:38.996Z,101354.59
2022-11-29T19:27:55.293Z,101352.44
2022-11-29T19:31:17.205Z,101346.09
2022-11-29T19:34:45.106Z,101358.34
2022-11-29T19:38:09.889Z,101352.66
2022-11-29T19:41:31.240Z,101346.56
2022-11-29T19:45:15.764Z,101352.53
2022-11-29T19:48:16.359Z,101356.16
2022-11-29T19:51:38.890Z,101355.78
2022-11-29T19:54:59.821Z,101355.78
2022-11-29T19:58:21.910Z,101348.56
2022-11-29T20:01:42.686Z,101352.28
2022-11-29T20:04:59.987Z,101352.59
2022-11-29T20:08:28.042Z,101347.41
2022-11-29T20:11:52.057Z,101345.31
2022-11-29T20:15:14.278Z,101343.06
2022-11-29T20:18:37.230Z,101342.84
2022-11-29T20:22:00.869Z,101347.94
2022-11-29T20:25:22.955Z,101345.03
2022-11-29T20:28:42.996Z,101342.94
2022-11-29T20:32:06.050Z,101344.94
2022-11-29T20:35:28.948Z,101347.75
2022-11-29T20:39:03.221Z,101341.81
2022-11-29T20:42:16.341Z,101339.72
2022-11-29T20:45:31.961Z,101345.03
2022-11-29T20:48:52.095Z,101349.72
2022-11-29T20:52:18.070Z,101338.75
2022-11-29T20:55:32.052Z,101334.44
2022-11-29T20:58:47.978Z,101345.63
2022-11-29T21:02:19.848Z,101339.22
2022-11-29T21:05:39.988Z,101337.22
2022-11-29T21:08:55.944Z,101342.72
2022-11-29T21:12:03.318Z,101341.75
2022-11-29T21:15:12.555Z,101339.06
2022-11-29T21:18:23.059Z,101344.44
2022-11-29T21:21:53.558Z,101342.41
2022-11-29T21:25:17.554Z,101338.16
2022-11-29T21:28:40.639Z,101341.75
2022-11-29T21:31:59.769Z,101346.13
2022-11-29T21:35:25.612Z,101341.81
2022-11-29T21:38:29.516Z,101348.56
2022-11-29T21:41:56.769Z,101345.75
2022-11-29T21:45:30.711Z,101350.16
2022-11-29T21:48:52.600Z,101343.06
2022-11-29T21:52:02.785Z,101353.28
2022-11-29T21:55:31.717Z,101354.09
2022-11-29T21:58:58.636Z,101349.34
2022-11-29T22:02:21.710Z,101345.03
2022-11-29T22:05:44.742Z,101350.16
2022-11-29T22:09:00.901Z,101339.78
2022-11-29T22:12:38.012Z,101346.34
2022-11-29T22:15:56.949Z,101347.69
2022-11-29T22:19:17.730Z,101346.13
2022-11-29T22:22:38.522Z,101346.28
2022-11-29T22:25:59.573Z,101343.75
2022-11-29T22:29:21.543Z,101340.16
2022-11-29T22:32:44.589Z,101338.53
2022-11-29T22:36:06.672Z,101338.97
2022-11-29T22:39:26.614Z,101342.78
2022-11-29T22:42:43.466Z,101340.69
2022-11-29T22:46:06.759Z,101334.44
2022-11-29T22:49:31.653Z,101335.41
2022-11-29T22:52:51.552Z,101334.09
2022-11-29T22:56:15.851Z,101332.00
2022-11-29T22:59:32.733Z,101327.16
2022-11-29T23:02:55.563Z,101321.69
2022-11-29T23:06:17.627Z,101325.91
2022-11-29T23:09:37.609Z,101326.94
2022-11-29T23:12:57.522Z,101319.59
2022-11-29T23:16:08.110Z,101323.31
2022-11-29T23:19:12.221Z,101317.94
2022-11-29T23:22:28.615Z,101307.41
2022-11-29T23:25:54.258Z,101311.59
2022-11-29T23:29:16.125Z,101309.97
2022-11-29T23:32:38.303Z,101307.94
2022-11-29T23:36:01.435Z,101303.88
2022-11-29T23:39:23.237Z,101292.59
2022-11-29T23:42:47.337Z,101302.03
2022-11-29T23:45:57.225Z,101299.38
2022-11-29T23:49:13.807Z,101311.50
2022-11-29T23:52:36.125Z,101305.78
2022-11-29T23:55:52.557Z,101314.56
2022-11-29T23:59:21.334Z,101311.31
